createdAt,value
2023-05-23T00:01:52.701Z,1.67
2023-05-23T00:04:22.649Z,1.70
2023-05-23T00:06:53.456Z,2.07
2023-05-23T00:09:23.531Z,2.17
2023-05-23T00:11:53.372Z,1.70
2023-05-23T00:14:23.673Z,1.90
2023-05-23T00:16:53.543Z,1.90
2023-05-23T00:19:23.386Z,2.17
2023-05-23T00:21:55.895Z,2.27
2023-05-23T00:24:25.889Z,2.33
2023-05-23T00:26:55.941Z,1.83
2023-05-23T00:29:25.791Z,1.83
2023-05-23T00:31:55.723Z,2.60
2023-05-23T00:34:25.824Z,1.90
2023-05-23T00:36:55.677Z,2.30
2023-05-23T00:39:25.824Z,1.83
2023-05-23T00:41:56.477Z,1.77
2023-05-23T00:46:58.461Z,1.65
2023-05-23T00:49:29.549Z,2.30
2023-05-23T00:52:00.789Z,2.25
2023-05-23T00:54:31.950Z,2.02
2023-05-23T00:57:02.094Z,1.90
2023-05-23T00:59:32.017Z,1.87
2023-05-23T01:02:02.463Z,1.90
2023-05-23T01:04:34.032Z,2.33
2023-05-23T01:09:33.185Z,1.98
2023-05-23T01:12:06.144Z,1.97
2023-05-23T01:14:45.046Z,1.90
2023-05-23T01:17:20.712Z,2.43
2023-05-23T01:20:02.280Z,2.30
2023-05-23T01:25:37.258Z,2.37
2023-05-23T01:28:12.853Z,2.37
2023-05-23T01:30:45.715Z,2.23
2023-05-23T01:33:18.188Z,2.60
2023-05-23T01:35:48.278Z,2.50
2023-05-23T01:38:18.376Z,2.50
2023-05-23T01:40:48.310Z,2.03
2023-05-23T01:43:18.023Z,2.20
2023-05-23T01:45:48.745Z,2.60
2023-05-23T01:50:47.974Z,1.95
2023-05-23T01:53:22.360Z,2.30
2023-05-23T01:55:53.916Z,2.40
2023-05-23T01:58:23.774Z,2.63
2023-05-23T02:00:53.709Z,2.07
2023-05-23T02:03:23.872Z,2.13
2023-05-23T02:05:54.118Z,2.10
2023-05-23T02:08:23.704Z,2.13
2023-05-23T02:10:53.550Z,2.10
2023-05-23T02:13:23.646Z,2.13
2023-05-23T02:15:53.676Z,2.47
2023-05-23T02:18:25.457Z,2.50
2023-05-23T02:20:56.251Z,2.50
2023-05-23T02:25:54.550Z,2.20
2023-05-23T02:28:24.315Z,1.80
2023-05-23T02:30:54.165Z,2.00
2023-05-23T02:33:24.220Z,2.00
2023-05-23T02:35:55.390Z,2.30
2023-05-23T02:38:26.899Z,2.05
2023-05-23T02:40:57.648Z,2.20
2023-05-23T02:43:27.308Z,2.50
2023-05-23T02:45:57.505Z,2.27
2023-05-23T02:48:27.336Z,2.10
2023-05-23T02:50:57.401Z,2.20
2023-05-23T02:53:27.597Z,2.90
2023-05-23T02:55:57.456Z,2.10
2023-05-23T02:58:27.313Z,1.57
2023-05-23T03:00:57.172Z,2.60
2023-05-23T03:03:28.796Z,3.00
2023-05-23T03:06:06.375Z,2.37
2023-05-23T03:08:36.303Z,2.40
2023-05-23T03:11:07.143Z,2.67
2023-05-23T03:13:37.401Z,2.43
2023-05-23T03:16:07.424Z,2.33
2023-05-23T03:18:37.838Z,2.80
2023-05-23T03:21:07.417Z,2.50
2023-05-23T03:23:37.466Z,3.10
2023-05-23T03:26:07.497Z,2.73
2023-05-23T03:28:37.617Z,2.37
2023-05-23T03:31:07.643Z,2.37
2023-05-23T03:33:39.658Z,2.30
2023-05-23T03:36:09.190Z,2.87
2023-05-23T03:38:39.207Z,2.40
2023-05-23T03:41:09.345Z,2.30
2023-05-23T03:43:39.302Z,2.90
2023-05-23T03:46:09.330Z,2.20
2023-05-23T03:48:40.130Z,2.40
2023-05-23T03:51:09.733Z,2.40
2023-05-23T03:53:39.971Z,2.52
2023-05-23T03:56:09.571Z,2.77
2023-05-23T03:58:39.452Z,3.23
2023-05-23T04:01:10.980Z,2.43
2023-05-23T04:03:41.007Z,2.97
2023-05-23T04:06:12.338Z,2.47
2023-05-23T04:08:43.644Z,3.03
2023-05-23T04:11:14.082Z,2.53
2023-05-23T04:13:45.206Z,2.20
2023-05-23T04:16:14.988Z,2.80
2023-05-23T04:18:46.637Z,3.73
2023-05-23T04:21:16.887Z,2.42
2023-05-23T04:23:48.929Z,3.03
2023-05-23T04:26:18.623Z,2.42
2023-05-23T04:28:50.199Z,2.97
2023-05-23T04:31:19.858Z,2.80
2023-05-23T04:33:52.582Z,2.95
2023-05-23T04:36:23.702Z,3.10
2023-05-23T04:38:55.715Z,2.52
2023-05-23T04:41:25.417Z,3.07
2023-05-23T04:44:10.155Z,3.27
2023-05-23T04:46:45.587Z,3.27
2023-05-23T04:49:18.132Z,2.60
2023-05-23T04:51:48.549Z,3.37
2023-05-23T04:54:22.869Z,2.80
2023-05-23T04:56:53.094Z,2.70
2023-05-23T04:59:23.326Z,2.23
2023-05-23T05:01:53.532Z,2.42
2023-05-23T05:04:23.684Z,2.40
2023-05-23T05:06:53.443Z,1.87
2023-05-23T05:09:22.989Z,1.97
2023-05-23T05:11:54.043Z,2.90
2023-05-23T05:16:55.855Z,2.08
2023-05-23T05:19:27.635Z,2.57
2023-05-23T05:21:57.761Z,2.37
2023-05-23T05:24:27.916Z,3.07
2023-05-23T05:26:58.437Z,2.62
2023-05-23T05:29:28.764Z,2.70
2023-05-23T05:31:58.976Z,2.30
2023-05-23T05:34:29.666Z,2.80
2023-05-23T05:36:59.701Z,2.72
2023-05-23T05:39:29.624Z,2.67
2023-05-23T05:42:01.262Z,2.93
2023-05-23T05:44:31.345Z,2.77
2023-05-23T05:47:01.108Z,3.03
2023-05-23T05:52:00.540Z,3.12
2023-05-23T05:54:30.853Z,2.40
2023-05-23T05:57:00.515Z,1.90
2023-05-23T05:59:32.387Z,3.20
2023-05-23T06:02:02.155Z,3.03
2023-05-23T06:04:32.492Z,3.17
2023-05-23T06:07:02.315Z,2.33
2023-05-23T06:09:32.168Z,2.90
2023-05-23T06:12:02.894Z,2.43
2023-05-23T06:14:32.637Z,2.60
2023-05-23T06:17:02.674Z,2.97
2023-05-23T06:19:32.617Z,2.97
2023-05-23T06:22:02.581Z,3.03
2023-05-23T06:24:32.447Z,3.10
2023-05-23T06:27:02.338Z,3.20
2023-05-23T06:29:32.218Z,3.13
2023-05-23T06:32:02.214Z,2.67
2023-05-23T06:34:33.450Z,2.37
2023-05-23T06:37:03.169Z,2.80
2023-05-23T06:39:32.910Z,2.47
2023-05-23T06:42:02.794Z,2.80
2023-05-23T06:44:34.367Z,3.23
2023-05-23T06:47:04.539Z,2.50
2023-05-23T06:49:34.549Z,3.23
2023-05-23T06:52:04.753Z,2.85
2023-05-23T06:54:34.455Z,3.00
2023-05-23T06:57:04.680Z,2.80
2023-05-23T06:59:34.456Z,2.87
2023-05-23T07:02:06.268Z,3.12
2023-05-23T07:04:36.586Z,2.40
2023-05-23T07:07:08.190Z,2.90
2023-05-23T07:09:39.389Z,2.90
2023-05-23T07:12:10.819Z,2.97
2023-05-23T07:14:41.792Z,2.55
2023-05-23T07:17:12.114Z,3.23
2023-05-23T07:19:42.054Z,4.30
2023-05-23T07:22:12.093Z,3.12
2023-05-23T07:24:42.340Z,2.57
2023-05-23T07:27:12.055Z,3.03
2023-05-23T07:29:42.149Z,2.23
2023-05-23T07:32:12.825Z,2.40
2023-05-23T07:34:42.858Z,2.63
2023-05-23T07:37:12.760Z,2.33
2023-05-23T07:39:44.329Z,2.40
2023-05-23T07:42:14.299Z,2.73
2023-05-23T07:44:44.328Z,3.33
2023-05-23T07:47:14.277Z,2.37
2023-05-23T07:49:44.932Z,2.33
2023-05-23T07:52:15.004Z,2.87
2023-05-23T07:54:44.931Z,2.90
2023-05-23T07:57:16.610Z,3.00
2023-05-23T07:59:46.542Z,3.27
2023-05-23T08:02:16.286Z,2.60
2023-05-23T08:04:48.027Z,2.60
2023-05-23T08:07:19.400Z,2.90
2023-05-23T08:09:50.545Z,2.80
2023-05-23T08:12:21.543Z,3.47
2023-05-23T08:14:54.027Z,3.10
2023-05-23T08:17:28.386Z,3.25
2023-05-23T08:20:01.231Z,3.40
2023-05-23T08:22:32.509Z,3.53
2023-05-23T08:25:03.217Z,3.20
2023-05-23T08:27:36.101Z,3.05
2023-05-23T08:30:09.743Z,3.53
2023-05-23T08:32:39.897Z,3.03
2023-05-23T08:35:09.858Z,3.10
2023-05-23T08:37:40.287Z,2.92
2023-05-23T08:40:13.303Z,2.53
2023-05-23T08:42:45.108Z,3.57
2023-05-23T08:45:17.068Z,3.37
2023-05-23T08:47:48.370Z,3.15
2023-05-23T08:50:22.949Z,3.80
2023-05-23T08:53:00.209Z,3.57
2023-05-23T08:55:31.524Z,3.30
2023-05-23T08:58:03.633Z,2.97
2023-05-23T09:00:35.707Z,2.37
2023-05-23T09:03:06.887Z,3.55
2023-05-23T09:05:57.676Z,2.90
2023-05-23T09:10:57.889Z,2.92
2023-05-23T09:13:28.409Z,2.73
2023-05-23T09:16:03.223Z,3.13
2023-05-23T09:18:37.228Z,3.37
2023-05-23T09:21:09.998Z,3.37
2023-05-23T09:23:43.562Z,2.90
2023-05-23T09:26:13.884Z,2.98
2023-05-23T09:28:45.593Z,3.30
2023-05-23T09:31:15.264Z,3.10
2023-05-23T09:33:50.078Z,3.23
2023-05-23T09:36:21.103Z,4.50
2023-05-23T09:38:52.539Z,4.08
2023-05-23T09:41:22.801Z,2.60
2023-05-23T09:43:54.423Z,3.30
2023-05-23T09:46:26.052Z,3.37
2023-05-23T09:48:56.611Z,3.53
2023-05-23T09:53:57.080Z,3.25
2023-05-23T09:56:28.940Z,3.20
2023-05-23T09:59:01.829Z,4.65
2023-05-23T10:01:34.123Z,3.30
2023-05-23T10:04:06.185Z,2.63
2023-05-23T10:06:44.616Z,3.00
2023-05-23T10:09:17.560Z,2.70
2023-05-23T10:12:10.168Z,3.33
2023-05-23T10:14:43.077Z,3.07
2023-05-23T10:17:22.224Z,3.70
2023-05-23T10:19:57.942Z,3.30
2023-05-23T10:22:28.252Z,3.13
2023-05-23T10:24:59.119Z,3.50
2023-05-23T10:27:29.635Z,4.40
2023-05-23T10:30:00.532Z,3.47
2023-05-23T10:32:32.099Z,4.83
2023-05-23T10:35:13.952Z,4.77
2023-05-23T10:37:52.451Z,4.33
2023-05-23T10:40:37.314Z,4.83
2023-05-23T10:43:12.982Z,4.20
2023-05-23T10:45:44.423Z,5.47
2023-05-23T10:48:35.315Z,4.80
2023-05-23T10:56:10.690Z,3.45
2023-05-23T10:58:40.907Z,4.60
2023-05-23T11:01:13.716Z,3.93
2023-05-23T11:03:55.567Z,4.23
2023-05-23T11:06:44.594Z,4.20
2023-05-23T11:09:21.974Z,3.77
2023-05-23T11:12:06.630Z,5.07
2023-05-23T11:14:39.566Z,3.93
2023-05-23T11:17:17.756Z,3.43
2023-05-23T11:20:07.828Z,3.27
2023-05-23T11:22:39.823Z,3.13
2023-05-23T11:25:11.028Z,4.03
2023-05-23T11:27:42.348Z,3.15
2023-05-23T11:30:14.525Z,2.90
2023-05-23T11:32:53.094Z,3.67
2023-05-23T11:35:23.072Z,3.17
2023-05-23T11:37:53.456Z,3.83
2023-05-23T11:40:37.437Z,3.10
2023-05-23T11:43:09.657Z,3.43
2023-05-23T11:45:40.353Z,2.73
2023-05-23T11:48:11.760Z,2.80
2023-05-23T11:50:55.153Z,3.17
2023-05-23T11:53:26.670Z,3.20
2023-05-23T11:56:00.655Z,2.33
2023-05-23T11:58:33.599Z,3.05
2023-05-23T12:01:07.736Z,3.20
2023-05-23T12:03:48.934Z,2.63
2023-05-23T12:06:24.658Z,3.55
2023-05-23T12:08:54.728Z,3.30
2023-05-23T12:11:26.288Z,2.80
2023-05-23T12:13:56.149Z,3.30
2023-05-23T12:16:26.237Z,2.77
2023-05-23T12:18:56.637Z,2.77
2023-05-23T12:21:33.290Z,3.00
2023-05-23T12:24:06.471Z,2.58
2023-05-23T12:26:39.363Z,2.67
2023-05-23T12:29:09.061Z,2.60
2023-05-23T12:31:39.090Z,2.87
2023-05-23T12:36:48.005Z,3.05
2023-05-23T12:39:10.488Z,2.90
2023-05-23T12:41:45.798Z,2.73
2023-05-23T12:44:17.189Z,3.07
2023-05-23T12:46:48.361Z,3.10
2023-05-23T12:49:18.364Z,2.50
2023-05-23T12:51:48.396Z,2.40
2023-05-23T12:54:18.333Z,3.10
2023-05-23T12:56:48.042Z,2.50
2023-05-23T12:59:17.644Z,3.03
2023-05-23T13:01:47.570Z,2.93
2023-05-23T13:04:17.587Z,2.80
2023-05-23T13:06:47.331Z,2.70
2023-05-23T13:09:17.008Z,2.40
2023-05-23T13:11:46.939Z,2.90
2023-05-23T13:14:16.511Z,2.57
2023-05-23T13:16:46.378Z,2.50
2023-05-23T13:19:16.282Z,2.05
2023-05-23T13:21:48.743Z,2.17
2023-05-23T13:24:18.500Z,2.00
2023-05-23T13:26:48.479Z,2.97
2023-05-23T13:29:18.218Z,2.53
2023-05-23T13:31:48.108Z,2.23
2023-05-23T13:34:17.938Z,2.80
2023-05-23T13:36:47.747Z,2.00
2023-05-23T13:39:19.091Z,2.57
2023-05-23T13:41:49.806Z,2.77
2023-05-23T13:44:19.532Z,2.90
2023-05-23T13:46:49.584Z,2.37
2023-05-23T13:49:19.589Z,2.33
2023-05-23T13:51:50.091Z,2.23
2023-05-23T13:54:19.963Z,1.90
2023-05-23T13:56:49.804Z,1.70
2023-05-23T13:59:21.353Z,1.87
2023-05-23T14:01:51.346Z,2.27
2023-05-23T14:04:21.734Z,2.30
2023-05-23T14:06:51.771Z,2.25
2023-05-23T14:09:23.237Z,2.57
2023-05-23T14:11:53.768Z,2.08
2023-05-23T14:14:23.318Z,2.50
2023-05-23T14:16:53.595Z,2.47
2023-05-23T14:19:23.475Z,2.20
2023-05-23T14:21:53.498Z,2.33
2023-05-23T14:24:23.341Z,2.33
2023-05-23T14:26:53.200Z,1.83
2023-05-23T14:29:22.759Z,2.13
2023-05-23T14:31:52.724Z,2.17
2023-05-23T14:34:22.354Z,2.37
2023-05-23T14:36:52.195Z,1.80
2023-05-23T14:39:22.271Z,1.90
2023-05-23T14:41:51.827Z,1.90
2023-05-23T14:44:21.563Z,2.67
2023-05-23T14:46:51.650Z,2.57
2023-05-23T14:49:21.379Z,2.83
2023-05-23T14:51:51.578Z,3.27
2023-05-23T14:54:22.046Z,2.30
2023-05-23T14:56:53.257Z,3.33
2023-05-23T15:01:52.075Z,2.98
2023-05-23T15:04:21.689Z,2.30
2023-05-23T15:06:51.761Z,2.27
2023-05-23T15:09:21.793Z,2.63
2023-05-23T15:11:51.639Z,2.60
2023-05-23T15:14:22.823Z,2.42
2023-05-23T15:16:52.762Z,2.23
2023-05-23T15:19:22.674Z,2.27
2023-05-23T15:21:52.625Z,2.30
2023-05-23T15:24:22.212Z,2.07
2023-05-23T15:26:52.488Z,2.73
2023-05-23T15:29:23.757Z,2.97
2023-05-23T15:31:54.170Z,2.80
2023-05-23T15:34:23.981Z,2.70
2023-05-23T15:36:53.873Z,2.80
2023-05-23T15:39:23.686Z,2.30
2023-05-23T15:41:53.729Z,2.17
2023-05-23T15:44:23.713Z,2.40
2023-05-23T15:46:53.860Z,2.10
2023-05-23T15:49:26.862Z,2.47
2023-05-23T15:51:55.611Z,2.60
2023-05-23T15:54:25.779Z,2.55
2023-05-23T15:56:55.532Z,2.63
2023-05-23T15:59:25.386Z,2.40
2023-05-23T16:01:54.976Z,2.13
2023-05-23T16:04:25.193Z,3.00
2023-05-23T16:06:55.041Z,2.60
2023-05-23T16:09:25.102Z,2.27
2023-05-23T16:11:54.749Z,2.77
2023-05-23T16:14:24.926Z,2.77
2023-05-23T16:16:54.486Z,2.47
2023-05-23T16:19:24.160Z,2.50
2023-05-23T16:21:54.042Z,2.63
2023-05-23T16:24:24.255Z,2.30
2023-05-23T16:26:53.823Z,2.73
2023-05-23T16:29:23.422Z,2.77
2023-05-23T16:31:53.319Z,2.33
2023-05-23T16:34:23.988Z,2.60
2023-05-23T16:36:53.882Z,3.02
2023-05-23T16:39:23.427Z,3.10
2023-05-23T16:41:53.568Z,2.50
2023-05-23T16:44:25.492Z,2.90
2023-05-23T16:46:55.452Z,2.93
2023-05-23T16:49:25.139Z,2.67
2023-05-23T16:51:55.042Z,2.37
2023-05-23T16:54:24.727Z,2.50
2023-05-23T16:56:54.353Z,2.23
2023-05-23T16:59:24.139Z,2.80
2023-05-23T17:01:53.951Z,2.77
2023-05-23T17:04:23.529Z,2.20
2023-05-23T17:06:53.385Z,2.70
2023-05-23T17:09:23.589Z,2.90
2023-05-23T17:11:53.396Z,2.10
2023-05-23T17:14:23.184Z,2.67
2023-05-23T17:16:53.147Z,2.53
2023-05-23T17:19:22.918Z,2.80
2023-05-23T17:21:52.767Z,3.43
2023-05-23T17:24:22.313Z,3.03
2023-05-23T17:26:52.174Z,2.90
2023-05-23T17:29:22.074Z,2.77
2023-05-23T17:31:51.819Z,3.00
2023-05-23T17:34:21.394Z,3.03
2023-05-23T17:36:52.623Z,2.83
2023-05-23T17:39:22.530Z,2.85
2023-05-23T17:41:52.203Z,3.30
2023-05-23T17:44:22.060Z,3.25
2023-05-23T17:46:51.993Z,2.93
2023-05-23T17:49:21.601Z,3.37
2023-05-23T17:51:51.741Z,3.60
2023-05-23T17:54:21.280Z,2.83
2023-05-23T17:56:51.532Z,3.30
2023-05-23T17:59:21.439Z,3.08
2023-05-23T18:01:51.645Z,3.47
2023-05-23T18:04:21.735Z,2.83
2023-05-23T18:06:51.415Z,3.57
2023-05-23T18:09:21.147Z,3.47
2023-05-23T18:11:51.254Z,3.50
2023-05-23T18:14:21.231Z,3.43
2023-05-23T18:16:51.152Z,3.60
2023-05-23T18:19:21.146Z,3.62
2023-05-23T18:21:50.890Z,3.17
2023-05-23T18:24:20.758Z,2.77
2023-05-23T18:26:50.800Z,3.63
2023-05-23T18:29:20.996Z,2.98
2023-05-23T18:31:50.543Z,4.07
2023-05-23T18:34:20.364Z,3.10
2023-05-23T18:36:50.219Z,3.70
2023-05-23T18:39:22.363Z,3.30
2023-05-23T18:41:52.337Z,3.10
2023-05-23T18:44:23.115Z,3.73
2023-05-23T18:46:53.046Z,3.25
2023-05-23T18:49:23.077Z,2.85
2023-05-23T18:51:54.448Z,3.10
2023-05-23T18:54:24.291Z,2.25
2023-05-23T18:56:54.157Z,2.97
2023-05-23T18:59:24.156Z,3.08
2023-05-23T19:01:53.780Z,3.33
2023-05-23T19:04:24.767Z,3.13
2023-05-23T19:06:54.813Z,3.05
2023-05-23T19:09:24.741Z,3.12
2023-05-23T19:11:54.653Z,2.53
2023-05-23T19:14:25.728Z,2.63
2023-05-23T19:16:56.103Z,2.45
2023-05-23T19:19:28.555Z,2.67
2023-05-23T19:21:58.056Z,2.55
2023-05-23T19:24:28.058Z,2.53
2023-05-23T19:26:57.905Z,2.73
2023-05-23T19:29:27.736Z,2.23
2023-05-23T19:31:58.348Z,2.60
2023-05-23T19:34:28.472Z,2.90
2023-05-23T19:36:58.742Z,2.70
2023-05-23T19:39:28.600Z,3.23
2023-05-23T19:41:58.334Z,3.07
2023-05-23T19:44:28.169Z,2.90
2023-05-23T19:46:58.012Z,3.30
2023-05-23T19:49:27.890Z,2.80
2023-05-23T19:51:57.901Z,3.23
2023-05-23T19:54:28.389Z,2.90
2023-05-23T19:56:58.204Z,3.13
2023-05-23T19:59:28.050Z,3.17
2023-05-23T20:01:57.998Z,2.87
2023-05-23T20:04:28.402Z,3.10
2023-05-23T20:06:58.537Z,3.10
2023-05-23T20:09:28.240Z,3.33
2023-05-23T20:11:58.072Z,3.07
2023-05-23T20:14:29.417Z,4.00
2023-05-23T20:16:59.291Z,4.07
2023-05-23T20:19:29.362Z,4.47
2023-05-23T20:21:59.226Z,4.13
2023-05-23T20:24:31.013Z,4.30
2023-05-23T20:27:00.923Z,4.10
2023-05-23T20:29:30.954Z,3.77
2023-05-23T20:32:01.145Z,4.97
2023-05-23T20:34:31.768Z,4.57
2023-05-23T20:37:01.628Z,4.50
2023-05-23T20:39:31.514Z,4.00
2023-05-23T20:42:01.348Z,4.57
2023-05-23T20:44:31.771Z,3.97
2023-05-23T20:47:01.576Z,4.67
2023-05-23T20:49:31.272Z,4.30
2023-05-23T20:52:01.946Z,4.43
2023-05-23T20:54:33.872Z,4.37
2023-05-23T20:57:03.791Z,4.00
2023-05-23T20:59:33.960Z,4.95
2023-05-23T21:02:04.833Z,4.80
2023-05-23T21:04:34.835Z,4.40
2023-05-23T21:07:05.785Z,4.50
2023-05-23T21:09:35.629Z,5.30
2023-05-23T21:14:36.316Z,4.15
2023-05-23T21:17:07.093Z,5.37
2023-05-23T21:19:37.015Z,4.17
2023-05-23T21:22:06.901Z,4.73
2023-05-23T21:24:36.631Z,4.37
2023-05-23T21:27:07.685Z,4.97
2023-05-23T21:29:37.543Z,4.40
2023-05-23T21:32:07.323Z,4.57
2023-05-23T21:34:37.194Z,4.78
2023-05-23T21:37:06.836Z,5.13
2023-05-23T21:39:50.551Z,4.63
2023-05-23T21:42:08.681Z,4.90
2023-05-23T21:44:40.753Z,4.80
2023-05-23T21:49:40.251Z,4.65
2023-05-23T21:52:10.157Z,4.50
2023-05-23T21:54:39.932Z,4.97
2023-05-23T21:57:09.533Z,5.13
2023-05-23T21:59:39.385Z,5.53
2023-05-23T22:02:10.214Z,4.70
2023-05-23T22:04:40.049Z,5.00
2023-05-23T22:07:09.910Z,5.03
2023-05-23T22:09:39.938Z,4.37
2023-05-23T22:12:09.663Z,4.77
2023-05-23T22:14:39.503Z,5.07
2023-05-23T22:17:09.923Z,5.10
2023-05-23T22:19:40.249Z,5.33
2023-05-23T22:22:11.414Z,5.70
2023-05-23T22:24:41.426Z,5.63
2023-05-23T22:27:11.357Z,5.10
2023-05-23T22:29:41.322Z,6.05
2023-05-23T22:32:10.951Z,5.60
2023-05-23T22:34:40.951Z,4.80
2023-05-23T22:37:11.086Z,4.30
2023-05-23T22:39:40.692Z,4.20
2023-05-23T22:42:10.705Z,4.20
2023-05-23T22:44:40.541Z,3.83
2023-05-23T22:47:12.066Z,3.92
2023-05-23T22:49:43.657Z,3.93
2023-05-23T22:52:13.216Z,3.03
2023-05-23T22:54:43.126Z,3.27
2023-05-23T22:57:12.983Z,3.25
2023-05-23T22:59:42.866Z,2.90
2023-05-23T23:02:12.786Z,2.60
2023-05-23T23:04:44.384Z,2.70
2023-05-23T23:07:14.091Z,2.93
2023-05-23T23:09:44.120Z,2.87
2023-05-23T23:12:13.690Z,3.17
2023-05-23T23:14:43.836Z,3.08
2023-05-23T23:17:13.686Z,3.10
2023-05-23T23:19:43.613Z,3.83
2023-05-23T23:22:13.559Z,2.80
2023-05-23T23:24:43.272Z,3.20
2023-05-23T23:27:13.357Z,2.90
2023-05-23T23:29:43.285Z,2.70
2023-05-23T23:32:13.181Z,2.87
2023-05-23T23:34:43.029Z,2.93
2023-05-23T23:37:12.676Z,3.73
2023-05-23T23:39:42.537Z,2.97
2023-05-23T23:42:12.167Z,2.63
2023-05-23T23:44:42.360Z,2.17
2023-05-23T23:47:12.066Z,2.50
2023-05-23T23:49:42.282Z,2.37
2023-05-23T23:52:12.094Z,2.07
2023-05-23T23:54:41.960Z,1.63
2023-05-23T23:57:14.371Z,1.67
2023-05-23T23:59:44.598Z,1.60
